KBILKJDN

Guest
Details From KBIL - Billings Logan Intl
To KJDN - Jordan
Flight Number -
Tags generated
Created
Modified
Stats Distance 117 nm / 217 km
Max Altitude 7,800 ft / 2,377 m
Waypoints 3
Social Downloads 1
Likes 0
Share VATSIM

Download

Looking for another format? Having issues loading an existing format? Contact us
Advertisement - Login to hide

Notes

Basic altitude profile: - Ascent Rate: 2500ft/min - Ascent Speed: 250kts - Cruise Altitude: 35000ft - Cruise Speed: 420kts - Descent Rate: 1500ft/min - Descent Speed: 250kts Options: - Use NATs: yes - Use PACOTS: yes - Use low airways: yes - Use high airways: yes

Route

KBIL NIBBE KJDN

ID Type Via Altitude Latitude Longitude Leg Dist Tot Dist Heading (true) Name
O KBIL APT - 0 ft / 0 m 45.80771˚ -108.54641˚ - 0 nm - Billings Logan Intl
NIBBE FIX - 7,800 ft / 2,377 m 45.93664˚ -108.05722˚ 21 nm 21 nm 69° / 69° -
O KJDN APT - 0 ft / 0 m 47.32870˚ -106.95266˚ 95 nm 117 nm 28° / 29° Jordan

Altitude Profile

Advertisement - Login to hide

KBIL

Details ICAO KBIL (BIL)
Name Billings Logan Intl
Region United States
Timezone America/Denver (UTC-7.0)
Stats Elevation 3,652 ft / 1,113 m (AMSL)
Location 45.807706° -108.546410°
Runways 3
Magnetic Variation 10.692° E

METAR

KBIL 152253Z 24011KT 10SM SCT120 OVC210 07/M09 A2970 RMK AO2 SLP070 ACSL DSNT ALQDS T00721089

Decode

TAF

KBIL 151737Z 1518/1618 24020G30KT P6SM BKN100 OVC200 FM152300 24013G21KT P6SM SCT100 OVC200 FM160200 32014KT P6SM OVC100 FM160600 02008KT P6SM VCSH BKN080 FM161000 04008KT 2SM -SN BR OVC015 FM161400 04008KT 3/4SM -SN BR OVC010

Decode

Departure Runways

ID Width Length Bearing (true) Bearing (mag) Surface Threshold Offset Overrun Length
07 75 ft / 23 m 5,486 ft / 1,672 m 83.96° 73.27° Asphalt 0 ft / 0 m 0 ft / 0 m
10L 150 ft / 46 m 10,493 ft / 3,198 m 111.77° 101.08° Asphalt 0 ft / 0 m 1,000 ft / 305 m
10R 75 ft / 23 m 3,792 ft / 1,156 m 111.71° 101.02° Asphalt 0 ft / 0 m 0 ft / 0 m
25 75 ft / 23 m 5,486 ft / 1,672 m 263.97° 253.28° Asphalt 0 ft / 0 m 0 ft / 0 m
28L 75 ft / 23 m 3,792 ft / 1,156 m 291.72° 281.03° Asphalt 0 ft / 0 m 0 ft / 0 m
28R 150 ft / 46 m 10,493 ft / 3,198 m 291.80° 281.11° Asphalt 0 ft / 0 m 1,000 ft / 305 m

KJDN

Details ICAO KJDN
Name Jordan
Region United States
Timezone America/Denver (UTC-7.0)
Stats Elevation 2,662 ft / 811 m (AMSL)
Location 47.328701° -106.952658°
Runways 1
Magnetic Variation 10.017° E

METAR

KJDN 152248Z AUTO 28010KT 09/M07 A2960 RMK AO1 SLP040 T00891072

Decode

TAF

Not found

Destination Runways

ID Width Length Bearing (true) Bearing (mag) Surface Threshold Offset Overrun Length
10 75 ft / 23 m 4,321 ft / 1,317 m 114.98° 104.96° Asphalt 0 ft / 0 m 0 ft / 0 m
28 75 ft / 23 m 4,321 ft / 1,317 m 295.00° 284.98° Asphalt 0 ft / 0 m 0 ft / 0 m